Stations météo

réclame
Mon MeteoGroup
Martina Franca, Italie (16318): Température de l'air & dewpoint: 15.05.2018 19:00:00 - 21.05.2018 19:00:00 (CEST)Martina Franca, Italie (16318): Vitesse du vent: 15.05.2018 19:00:00 - 21.05.2018 19:00:00 (CEST)Martina Franca, Italie (16318): Direction du vent: 15.05.2018 19:00:00 - 21.05.2018 19:00:00 (CEST)Martina Franca, Italie (16318): reduced air pressure: 15.05.2018 19:00:00 - 21.05.2018 19:00:00 (CEST)Martina Franca, Italie (16318): Quantités de précipitations: 15.05.2018 19:00:00 - 21.05.2018 19:00:00 (CEST)
Date & Time tt [°C] td [°C] ff [km/h] ff [knt] dd ppp [hPa] rr [mm]
21.05.2018 19:00:00 - - - - - - -
21.05.2018 18:00:00 20,7 16,0 4 2 SW 1012,4 -
21.05.2018 17:00:00 20,3 15,2 8 4 SW 1013,1 -
21.05.2018 16:00:00 19,9 13,3 8 4 NE 1013,0 -
21.05.2018 15:00:00 23,1 15,6 5 3 NE 1012,2 -
21.05.2018 14:00:00 23,9 17,3 9 5 ENE 1012,1 0,0
21.05.2018 13:00:00 24,5 17,2 8 4 SW 1012,4 -
21.05.2018 12:00:00 23,9 17,3 9 5 NNE 1012,6 -
21.05.2018 11:00:00 23,1 16,3 8 4 NNE 1012,9 -
21.05.2018 10:00:00 22,0 16,6 5 3 NNE 1013,0 -
21.05.2018 09:00:00 20,2 16,0 - - - 1013,5 -
21.05.2018 08:00:00 - - - - - - 0,0
21.05.2018 07:00:00 - - - - - - -
21.05.2018 06:00:00 - - - - - - -
21.05.2018 05:00:00 - - - - - - -
21.05.2018 04:00:00 - - - - - - -
21.05.2018 03:00:00 15,0 12,3 15 8 ENE 1014,4 -
21.05.2018 02:00:00 15,2 12,8 16 9 NE 1014,5 0,0
21.05.2018 01:00:00 15,7 12,9 13 7 NE 1014,6 -
21.05.2018 00:00:00 16,3 12,8 13 7 NE 1014,5 -
20.05.2018 23:00:00 15,8 14,6 9 5 NNE 1014,4 -
20.05.2018 22:00:00 16,1 15,1 11 6 NE 1014,0 -
20.05.2018 21:00:00 17,1 15,4 11 6 NE 1013,5 -
20.05.2018 20:00:00 19,1 15,1 9 5 NE 1012,9 0,0
20.05.2018 19:00:00 21,2 15,4 8 4 NNE 1012,4 -
20.05.2018 18:00:00 22,2 15,7 9 5 NE 1012,2 -
20.05.2018 17:00:00 22,7 16,6 11 6 NE 1012,3 -
20.05.2018 16:00:00 23,0 16,7 15 8 NE 1012,4 -
20.05.2018 15:00:00 23,2 16,4 15 8 NE 1012,5 -
20.05.2018 14:00:00 23,6 16,1 11 6 NNE 1012,6 0,0
20.05.2018 13:00:00 22,7 16,2 11 6 N 1013,0 -
20.05.2018 12:00:00 23,1 15,6 13 7 NNE 1013,5 -
20.05.2018 11:00:00 21,1 14,4 11 6 N 1014,1 -
20.05.2018 10:00:00 20,9 14,9 13 7 NNE 1014,0 -
20.05.2018 09:00:00 19,2 14,6 15 8 NNE 1014,4 -
20.05.2018 08:00:00 17,3 13,5 15 8 NNE 1014,9 0,0
20.05.2018 07:00:00 15,2 12,7 15 8 NNE 1015,2 -
20.05.2018 06:00:00 13,1 11,6 15 8 NNE 1015,4 -
20.05.2018 05:00:00 12,8 11,8 15 8 N 1015,5 -
20.05.2018 04:00:00 13,5 12,7 16 9 NNE 1015,1 -
20.05.2018 03:00:00 13,5 12,8 18 10 N 1015,2 -
20.05.2018 02:00:00 13,6 12,9 16 9 N 1015,5 0,0
20.05.2018 01:00:00 13,8 13,0 16 9 N 1015,4 -
20.05.2018 00:00:00 13,9 12,6 16 9 NNE 1015,5 -
19.05.2018 23:00:00 14,1 11,8 15 8 NNE 1015,7 -
19.05.2018 22:00:00 14,7 11,6 16 9 N 1014,7 -
19.05.2018 21:00:00 15,5 11,6 18 10 NNE 1014,2 -
19.05.2018 20:00:00 17,2 11,4 15 8 NNE 1014,0 0,0
19.05.2018 19:00:00 19,3 10,8 16 9 NNE 1013,4 -
19.05.2018 18:00:00 20,6 11,2 18 10 N 1013,6 -
19.05.2018 17:00:00 21,4 12,2 16 9 N 1013,8 -
19.05.2018 16:00:00 21,7 13,0 16 9 N 1013,9 -
19.05.2018 15:00:00 22,3 14,1 16 9 N 1013,6 -
19.05.2018 14:00:00 21,6 14,4 15 8 NNW - 0,0
19.05.2018 13:00:00 21,2 14,3 16 9 NNE 1014,0 -
19.05.2018 12:00:00 20,6 14,4 16 9 ENE 1014,0 -
19.05.2018 11:00:00 20,0 15,1 16 9 N 1014,1 -
19.05.2018 10:00:00 18,3 15,8 21 11 N 1014,1 -
19.05.2018 09:00:00 16,3 16,1 15 8 N 1014,5 -
19.05.2018 08:00:00 14,5 14,3 21 11 N 1014,5 0,0
19.05.2018 07:00:00 13,6 13,4 16 9 N 1014,4 -
19.05.2018 06:00:00 12,9 12,7 16 9 N 1014,1 -
19.05.2018 05:00:00 12,5 12,2 21 11 N 1013,8 -
19.05.2018 04:00:00 12,4 12,1 21 11 N 1014,0 -
19.05.2018 03:00:00 12,3 11,8 21 11 NNE 1014,1 -
19.05.2018 02:00:00 12,1 11,6 21 11 NNE 1014,4 0,0
19.05.2018 01:00:00 12,2 11,6 16 9 NE 1014,8 -
19.05.2018 00:00:00 12,2 11,6 15 8 NE 1015,4 -
18.05.2018 23:00:00 11,8 11,2 8 4 N 1015,8 -
18.05.2018 22:00:00 12,2 11,6 13 7 N 1015,5 -
18.05.2018 21:00:00 12,5 11,5 11 6 N 1015,1 -
18.05.2018 20:00:00 14,3 13,5 5 3 NW 1015,0 0,0
18.05.2018 19:00:00 15,2 14,7 4 2 W 1014,9 -
18.05.2018 18:00:00 14,4 13,7 0 0 N 1015,7 -
18.05.2018 17:00:00 14,0 13,3 2 1 ESE 1016,3 -
18.05.2018 16:00:00 14,1 13,4 4 2 SSW 1016,9 -
18.05.2018 15:00:00 14,1 13,3 4 2 WSW 1016,9 -
18.05.2018 14:00:00 14,2 13,5 4 2 SSW 1017,5 0,0
18.05.2018 13:00:00 14,1 13,3 5 3 N 1016,8 -
18.05.2018 12:00:00 14,2 13,4 4 2 ESE 1017,5 -
18.05.2018 11:00:00 13,3 12,3 4 2 ENE 1017,4 -
18.05.2018 10:00:00 13,6 11,6 0 0 N 1017,8 -
18.05.2018 09:00:00 14,4 10,6 4 2 SW 1017,5 -
18.05.2018 08:00:00 15,1 10,9 11 6 ENE 1016,4 0,0
18.05.2018 07:00:00 13,4 9,6 13 7 NE 1016,3 -
18.05.2018 06:00:00 13,1 8,5 15 8 ENE 1015,8 -
18.05.2018 05:00:00 11,8 10,4 11 6 ENE 1016,2 -
18.05.2018 04:00:00 10,2 8,8 0 0 N 1017,1 -
18.05.2018 03:00:00 11,3 9,7 2 1 N 1017,0 -
18.05.2018 02:00:00 12,9 9,1 2 1 S 1017,1 0,0
18.05.2018 01:00:00 13,7 9,7 4 2 S 1017,1 -
18.05.2018 00:00:00 13,3 10,1 4 2 SSE 1017,2 -
17.05.2018 23:00:00 13,6 12,0 4 2 ESE 1017,4 -
17.05.2018 22:00:00 13,1 10,8 2 1 S 1017,5 -
17.05.2018 21:00:00 13,7 9,1 2 1 S 1016,9 -
17.05.2018 20:00:00 16,2 9,6 0 0 N 1016,2 0,0
17.05.2018 19:00:00 18,8 12,5 8 4 SSW 1015,8 -
17.05.2018 18:00:00 20,9 14,9 5 3 S 1015,0 -
17.05.2018 17:00:00 19,8 14,5 4 2 E 1014,9 -
17.05.2018 16:00:00 19,5 14,9 5 3 ENE 1015,5 -
17.05.2018 15:00:00 20,2 14,0 5 3 SSE 1015,6 -
17.05.2018 14:00:00 20,3 15,0 11 6 S 1015,7 0,0
17.05.2018 13:00:00 20,5 16,7 8 4 W 1016,2 -
17.05.2018 12:00:00 20,3 15,2 8 4 SSW 1016,1 -
17.05.2018 11:00:00 19,6 16,0 5 3 SW 1016,0 -
17.05.2018 10:00:00 16,3 14,4 4 2 SSW 1016,7 -
17.05.2018 09:00:00 15,7 14,8 4 2 S 1016,7 -
17.05.2018 08:00:00 15,4 15,2 2 1 ESE 1016,5 0,0
17.05.2018 07:00:00 13,2 12,8 4 2 ENE 1016,7 -
17.05.2018 06:00:00 11,6 11,1 8 4 NE 1016,7 -
17.05.2018 05:00:00 11,1 10,6 9 5 NE 1016,4 -
17.05.2018 04:00:00 11,1 10,5 4 2 E 1016,1 -
17.05.2018 03:00:00 11,7 11,1 5 3 NE 1016,1 -
17.05.2018 02:00:00 11,3 10,4 2 1 E 1016,7 0,0
17.05.2018 01:00:00 12,3 11,4 2 1 S 1016,9 -
17.05.2018 00:00:00 12,3 11,0 2 1 SE 1017,3 -
16.05.2018 23:00:00 12,9 11,3 5 3 S 1017,1 -
16.05.2018 22:00:00 12,7 10,6 4 2 SSE 1017,1 -
16.05.2018 21:00:00 12,9 9,7 2 1 S 1016,7 -
16.05.2018 20:00:00 14,9 10,3 9 5 SSW 1016,5 0,0
16.05.2018 19:00:00 17,3 10,4 8 4 SW 1015,7 -
16.05.2018 18:00:00 18,2 11,7 8 4 SW 1015,8 -
16.05.2018 17:00:00 19,9 12,1 11 6 SW 1015,5 -
16.05.2018 16:00:00 20,1 12,3 9 5 SSW 1015,5 -
16.05.2018 15:00:00 20,3 9,5 9 5 SW 1015,7 -
16.05.2018 14:00:00 20,5 10,0 9 5 SSW 1015,7 0,0
16.05.2018 13:00:00 19,5 9,9 8 4 E 1016,1 -
16.05.2018 12:00:00 19,1 11,4 8 4 S 1016,2 -
16.05.2018 11:00:00 17,4 9,2 4 2 NE 1016,6 -
16.05.2018 10:00:00 16,7 10,3 8 4 W 1016,5 -
16.05.2018 09:00:00 15,2 10,1 8 4 WSW 1016,9 -
16.05.2018 08:00:00 12,6 7,4 8 4 WNW 1017,2 0,0
16.05.2018 07:00:00 11,0 6,9 8 4 WNW 1016,9 -
16.05.2018 06:00:00 9,6 6,6 13 7 WNW 1016,9 -
16.05.2018 05:00:00 9,0 7,1 9 5 W 1017,1 -
16.05.2018 04:00:00 8,7 7,1 8 4 W 1017,0 -
16.05.2018 03:00:00 8,3 6,7 9 5 W 1016,9 -
16.05.2018 02:00:00 8,7 7,1 5 3 SW 1017,1 0,0
16.05.2018 01:00:00 9,2 7,6 9 5 WSW 1016,8 -
16.05.2018 00:00:00 9,2 7,8 8 4 SW 1016,5 -
15.05.2018 23:00:00 9,8 8,7 11 6 SW 1015,9 -
15.05.2018 22:00:00 9,8 8,7 11 6 WSW 1015,8 -
15.05.2018 21:00:00 10,1 8,5 13 7 E 1014,8 -
15.05.2018 20:00:00 12,5 11,5 9 5 WSW 1014,3 -
15.05.2018 19:00:00 14,0 13,3 9 5 WSW 1013,7 -

tt = Température de l'air
td = dewpoint
ff = Vitesse du vent
dd = Direction du vent
ppp = reduced air pressure
rr = Quantités de précipitations

stations d'obs. à proximité